Time;durP1;ratioP1;P1;durP2;ratioP2;P2;SDS_P1;SDS_P2;PMS_P1;PMS_P2;Temp;Humidity;BMP_temperature;BMP_pressure;BME280_temperature;BME280_humidity;BME280_pressure;Samples;Min_cycle;Max_cycle;Signal;HPM_P1;HPM_P2
2022/11/29 00:01:10;;;;;;;13.65;7.65;;;7.70;99.90;;;;;;4861626;29;20045;-62
2022/11/29 00:03:37;;;;;;;14.55;7.03;;;7.70;99.90;;;;;;4861577;29;20041;-62
2022/11/29 00:06:03;;;;;;;9.50;6.72;;;7.70;99.90;;;;;;4861702;29;20049;-63
2022/11/29 00:08:30;;;;;;;12.93;7.53;;;7.70;99.90;;;;;;4861737;29;20069;-63
2022/11/29 00:10:57;;;;;;;13.52;7.43;;;7.70;99.90;;;;;;4860816;29;20049;-62
2022/11/29 00:13:23;;;;;;;13.50;6.82;;;7.70;99.90;;;;;;4861583;29;20133;-62
2022/11/29 00:15:50;;;;;;;11.45;7.20;;;7.70;99.90;;;;;;4861258;29;20077;-62
2022/11/29 00:18:17;;;;;;;11.20;7.28;;;7.70;99.90;;;;;;4861626;29;20534;-63
2022/11/29 00:20:43;;;;;;;17.67;7.93;;;7.70;99.90;;;;;;4861535;29;20560;-62
2022/11/29 00:23:10;;;;;;;15.23;7.65;;;7.70;99.90;;;;;;4861241;29;20076;-62
2022/11/29 00:25:37;;;;;;;12.30;8.18;;;7.70;99.90;;;;;;4861305;29;20049;-61
2022/11/29 00:28:03;;;;;;;13.63;8.23;;;7.70;99.90;;;;;;4859667;29;20065;-62
2022/11/29 00:30:30;;;;;;;17.95;10.18;;;7.80;99.90;;;;;;4860316;29;20046;-62
2022/11/29 00:32:57;;;;;;;14.02;9.48;;;7.80;99.90;;;;;;4861501;29;20037;-63
2022/11/29 00:35:38;;;;;;;41.40;13.43;;;7.80;99.90;;;;;;4861506;29;20056;-62
2022/11/29 00:38:05;;;;;;;39.05;17.25;;;7.90;99.90;;;;;;4861112;29;20042;-63
2022/11/29 00:40:32;;;;;;;35.33;16.73;;;7.80;99.90;;;;;;4861397;29;20466;-62
2022/11/29 00:42:58;;;;;;;86.45;17.92;;;7.90;99.90;;;;;;4861467;29;20109;-63
2022/11/29 00:45:25;;;;;;;83.68;18.50;;;7.90;99.90;;;;;;4861234;29;20078;-62
2022/11/29 00:47:52;;;;;;;50.33;18.83;;;7.80;99.90;;;;;;4861190;29;20109;-62
2022/11/29 00:50:18;;;;;;;111.22;19.45;;;7.80;99.90;;;;;;4861106;29;20046;-63
2022/11/29 00:52:45;;;;;;;53.50;18.85;;;7.80;99.90;;;;;;4861333;29;20371;-62
2022/11/29 00:55:12;;;;;;;39.05;19.65;;;7.80;99.90;;;;;;4860787;29;20102;-62
2022/11/29 00:57:39;;;;;;;74.28;18.85;;;7.90;99.90;;;;;;4861226;29;20041;-62
2022/11/29 01:00:05;;;;;;;139.55;20.45;;;7.90;99.90;;;;;;4861263;29;20489;-62
2022/11/29 01:02:32;;;;;;;51.92;19.13;;;7.90;99.90;;;;;;4861105;29;20069;-63
2022/11/29 01:04:59;;;;;;;74.85;18.55;;;7.90;99.90;;;;;;4861006;29;20561;-61
2022/11/29 01:07:26;;;;;;;57.63;17.95;;;7.90;99.90;;;;;;4861299;29;20077;-62
2022/11/29 01:09:52;;;;;;;59.90;16.60;;;7.90;99.90;;;;;;4861127;29;20105;-61
2022/11/29 01:12:19;;;;;;;45.33;15.95;;;7.80;99.90;;;;;;4861002;29;20101;-61
2022/11/29 01:14:46;;;;;;;42.42;16.45;;;7.80;99.90;;;;;;4860822;29;20117;-61
2022/11/29 01:17:12;;;;;;;28.50;16.05;;;7.80;99.90;;;;;;4861056;29;20042;-62
2022/11/29 01:19:39;;;;;;;41.13;17.20;;;7.80;99.90;;;;;;4861027;29;20054;-64
2022/11/29 01:22:09;;;;;;;30.25;17.20;;;7.80;99.90;;;;;;4861590;29;20394;-62
2022/11/29 01:24:36;;;;;;;29.13;16.33;;;7.90;99.90;;;;;;4862830;29;20117;-61
2022/11/29 01:27:03;;;;;;;25.10;16.92;;;7.90;99.90;;;;;;4863959;29;20049;-61
2022/11/29 01:29:29;;;;;;;34.03;18.55;;;7.90;99.90;;;;;;4847750;29;20509;-62
2022/11/29 01:31:56;;;;;;;34.22;17.23;;;7.90;99.90;;;;;;4863258;29;20053;-62
2022/11/29 01:34:23;;;;;;;28.13;17.20;;;8.00;99.90;;;;;;4864131;29;20042;-60
2022/11/29 01:36:49;;;;;;;26.55;17.17;;;8.00;99.90;;;;;;4863926;29;20042;-62
2022/11/29 01:39:16;;;;;;;29.05;17.10;;;8.00;99.90;;;;;;4864034;29;20073;-62
2022/11/29 01:41:43;;;;;;;28.40;17.42;;;8.00;99.90;;;;;;4863830;29;20080;-64
2022/11/29 01:44:10;;;;;;;30.40;16.98;;;8.00;99.90;;;;;;4863717;29;20133;-63
2022/11/29 01:46:36;;;;;;;28.05;15.50;;;8.00;99.90;;;;;;4863941;29;20434;-63
2022/11/29 01:49:03;;;;;;;27.60;16.95;;;8.00;99.90;;;;;;4863476;29;20086;-63
2022/11/29 01:51:30;;;;;;;33.78;17.65;;;8.00;99.90;;;;;;4864050;29;20460;-62
2022/11/29 01:53:56;;;;;;;29.55;18.10;;;8.00;99.90;;;;;;4864137;29;20073;-63
2022/11/29 01:56:23;;;;;;;33.58;17.95;;;8.00;99.90;;;;;;4863397;29;20041;-63
2022/11/29 01:58:50;;;;;;;30.48;17.55;;;8.00;99.90;;;;;;4862485;29;20351;-64
2022/11/29 02:01:17;;;;;;;26.35;15.88;;;8.00;99.90;;;;;;4862388;29;20054;-62
2022/11/29 02:03:43;;;;;;;31.05;18.40;;;8.00;99.90;;;;;;4863280;29;20102;-62
2022/11/29 02:06:10;;;;;;;32.97;17.48;;;8.00;99.90;;;;;;4863326;29;20054;-63
2022/11/29 02:08:37;;;;;;;35.15;17.08;;;8.10;99.90;;;;;;4862455;29;20199;-63
2022/11/29 02:11:03;;;;;;;42.50;18.10;;;8.10;99.90;;;;;;4863746;29;20110;-62
2022/11/29 02:13:30;;;;;;;40.85;17.70;;;8.10;99.90;;;;;;4863398;29;20049;-63
2022/11/29 02:15:57;;;;;;;38.70;18.45;;;8.10;99.90;;;;;;4862272;29;20144;-62
2022/11/29 02:18:24;;;;;;;48.85;18.92;;;8.10;99.90;;;;;;4863311;29;20503;-63
2022/11/29 02:20:50;;;;;;;42.05;19.40;;;8.10;99.90;;;;;;4863482;29;20110;-63
2022/11/29 02:23:17;;;;;;;43.72;19.13;;;8.10;99.90;;;;;;4863132;29;20053;-63
2022/11/29 02:25:44;;;;;;;36.67;19.08;;;8.20;99.90;;;;;;4863448;29;20046;-64
2022/11/29 02:28:10;;;;;;;57.33;19.40;;;8.20;99.90;;;;;;4863042;29;20144;-63
2022/11/29 02:30:37;;;;;;;42.50;19.58;;;8.20;99.90;;;;;;4863250;29;20452;-65
2022/11/29 02:33:04;;;;;;;49.53;20.88;;;8.10;99.90;;;;;;4863189;29;20048;-64
2022/11/29 02:35:31;;;;;;;45.45;20.45;;;8.10;99.90;;;;;;4862265;29;20461;-63
2022/11/29 02:37:57;;;;;;;43.47;20.75;;;8.10;99.90;;;;;;4863445;29;20078;-61
2022/11/29 02:40:24;;;;;;;51.95;21.02;;;8.10;99.90;;;;;;4862711;29;20049;-63
2022/11/29 02:42:51;;;;;;;44.20;21.77;;;8.10;99.90;;;;;;4863168;29;20046;-63
2022/11/29 02:45:22;;;;;;;44.03;20.98;;;8.10;99.90;;;;;;4862855;29;20057;-62
2022/11/29 02:47:49;;;;;;;52.78;21.55;;;8.10;99.90;;;;;;4862963;29;20493;-63
2022/11/29 02:50:15;;;;;;;45.10;21.38;;;8.10;99.90;;;;;;4861599;29;20132;-63
2022/11/29 02:52:42;;;;;;;40.88;21.88;;;8.10;99.90;;;;;;4862771;29;20082;-63
2022/11/29 02:55:09;;;;;;;45.85;21.88;;;8.10;99.90;;;;;;4862791;29;20048;-62
2022/11/29 02:57:36;;;;;;;40.38;20.60;;;8.10;99.90;;;;;;4862870;29;20124;-63
2022/11/29 03:00:03;;;;;;;44.83;21.25;;;8.10;99.90;;;;;;4862513;29;20077;-62
2022/11/29 03:02:30;;;;;;;41.92;21.77;;;8.10;99.90;;;;;;4862755;29;20114;-64
2022/11/29 03:04:56;;;;;;;38.63;20.98;;;8.10;99.90;;;;;;4862444;29;20049;-63
2022/11/29 03:07:23;;;;;;;43.03;20.80;;;8.10;99.90;;;;;;4862783;29;20086;-64
2022/11/29 03:09:50;;;;;;;41.88;20.55;;;8.00;99.90;;;;;;4862338;29;20124;-62
2022/11/29 03:12:17;;;;;;;38.90;20.70;;;8.00;99.90;;;;;;4862415;29;20080;-63
2022/11/29 03:14:43;;;;;;;43.90;19.95;;;8.00;99.90;;;;;;4862602;29;20050;-62
2022/11/29 03:17:10;;;;;;;39.65;20.23;;;8.00;99.90;;;;;;4862559;29;20034;-63
2022/11/29 03:19:37;;;;;;;42.08;21.00;;;8.00;99.90;;;;;;4861145;29;20049;-62
2022/11/29 03:22:04;;;;;;;35.85;19.95;;;8.00;99.90;;;;;;4862387;29;20045;-63
2022/11/29 03:24:31;;;;;;;35.92;19.60;;;8.00;99.90;;;;;;4862582;29;20051;-63
2022/11/29 03:26:57;;;;;;;40.30;21.13;;;8.00;99.90;;;;;;4862420;29;20605;-62
2022/11/29 03:29:24;;;;;;;34.97;19.98;;;8.00;99.90;;;;;;4861938;29;20131;-63
2022/11/29 03:31:51;;;;;;;42.00;21.05;;;8.00;99.90;;;;;;4862393;29;20053;-63
2022/11/29 03:34:17;;;;;;;40.40;20.83;;;8.00;99.90;;;;;;4862099;29;20041;-63
2022/11/29 03:36:44;;;;;;;34.75;20.40;;;8.00;99.90;;;;;;4861984;29;20105;-63
2022/11/29 03:39:11;;;;;;;37.22;19.75;;;7.90;99.90;;;;;;4862334;29;20114;-63
2022/11/29 03:41:38;;;;;;;32.08;20.08;;;8.00;99.90;;;;;;4861897;29;20049;-62
2022/11/29 03:44:04;;;;;;;35.38;19.38;;;7.90;99.90;;;;;;4862171;29;20050;-63
2022/11/29 03:46:31;;;;;;;34.95;19.50;;;7.90;99.90;;;;;;4861234;29;20521;-62
2022/11/29 03:48:58;;;;;;;35.03;19.67;;;7.80;99.90;;;;;;4862090;29;20041;-64
2022/11/29 03:51:25;;;;;;;35.92;20.08;;;7.80;99.90;;;;;;4861970;29;20049;-64
2022/11/29 03:53:51;;;;;;;40.08;22.42;;;7.80;99.90;;;;;;4861960;29;20562;-63
2022/11/29 03:56:18;;;;;;;36.70;22.15;;;7.80;99.90;;;;;;4861727;29;20061;-63
2022/11/29 03:58:45;;;;;;;35.38;22.65;;;7.80;99.90;;;;;;4861693;29;20057;-63
2022/11/29 04:01:11;;;;;;;39.65;20.40;;;7.90;99.90;;;;;;4862034;29;20128;-63
2022/11/29 04:03:38;;;;;;;35.40;19.40;;;7.80;99.90;;;;;;4861454;29;20045;-64
2022/11/29 04:06:05;;;;;;;34.85;19.42;;;7.80;99.90;;;;;;4861405;29;20493;-62
2022/11/29 04:08:32;;;;;;;28.73;17.98;;;7.90;99.90;;;;;;4861808;29;20057;-62
2022/11/29 04:10:58;;;;;;;33.90;18.73;;;7.80;99.90;;;;;;4861485;29;20045;-62
2022/11/29 04:13:25;;;;;;;31.45;17.90;;;7.80;99.90;;;;;;4861478;29;20045;-63
2022/11/29 04:15:52;;;;;;;25.63;17.20;;;7.80;99.90;;;;;;4861234;29;20049;-64
2022/11/29 04:18:19;;;;;;;34.55;18.75;;;7.90;99.90;;;;;;4861414;29;20128;-63
2022/11/29 04:20:45;;;;;;;33.63;17.58;;;8.00;99.90;;;;;;4860128;29;20092;-65
2022/11/29 04:23:14;;;;;;;34.75;17.90;;;7.90;99.90;;;;;;4861602;29;20132;-63
2022/11/29 04:25:40;;;;;;;30.60;18.80;;;7.90;99.90;;;;;;4861563;29;20048;-63
2022/11/29 04:28:07;;;;;;;28.85;17.38;;;8.00;99.90;;;;;;4861632;29;20430;-63
2022/11/29 04:30:34;;;;;;;35.78;18.08;;;7.90;99.90;;;;;;4861174;29;20084;-62
2022/11/29 04:33:00;;;;;;;28.85;18.38;;;7.90;99.90;;;;;;4861282;29;20566;-63
2022/11/29 04:35:27;;;;;;;36.78;19.73;;;7.90;99.90;;;;;;4861572;29;20118;-63
2022/11/29 04:37:54;;;;;;;34.75;20.08;;;7.90;99.90;;;;;;4860966;29;20045;-62
2022/11/29 04:40:21;;;;;;;36.15;17.83;;;7.90;99.90;;;;;;4861163;29;20124;-63
2022/11/29 04:42:47;;;;;;;40.90;20.05;;;7.80;99.90;;;;;;4861106;29;20053;-63
2022/11/29 04:45:14;;;;;;;35.08;18.30;;;7.80;99.90;;;;;;4860963;29;20485;-63
2022/11/29 04:47:41;;;;;;;33.65;17.13;;;7.90;99.90;;;;;;4861532;29;20053;-63
2022/11/29 04:50:07;;;;;;;39.55;18.33;;;7.80;99.90;;;;;;4860025;29;20034;-64
2022/11/29 04:52:34;;;;;;;38.75;20.25;;;7.80;99.90;;;;;;4861443;29;20466;-64
2022/11/29 04:55:01;;;;;;;35.80;18.88;;;7.80;99.90;;;;;;4861359;29;20461;-63
2022/11/29 04:57:27;;;;;;;33.33;19.15;;;7.80;99.90;;;;;;4862452;29;20073;-62
2022/11/29 04:59:54;;;;;;;34.85;18.15;;;7.80;99.90;;;;;;4864788;29;20105;-62
2022/11/29 05:02:21;;;;;;;34.63;17.20;;;7.90;99.90;;;;;;4864896;29;20376;-63
2022/11/29 05:04:48;;;;;;;29.38;16.73;;;7.90;99.90;;;;;;4863419;29;20041;-62
2022/11/29 05:07:14;;;;;;;27.48;16.55;;;7.90;99.90;;;;;;4864688;29;20065;-63
2022/11/29 05:09:41;;;;;;;27.73;16.52;;;7.90;99.90;;;;;;4864719;29;20128;-63
2022/11/29 05:12:08;;;;;;;30.95;17.17;;;7.90;99.90;;;;;;4864224;29;20425;-63
2022/11/29 05:14:35;;;;;;;29.63;17.45;;;7.90;99.90;;;;;;4864518;29;20042;-65
2022/11/29 05:17:01;;;;;;;26.40;16.92;;;7.90;99.90;;;;;;4864745;29;20469;-63
2022/11/29 05:19:28;;;;;;;29.60;17.55;;;7.90;99.90;;;;;;4864772;29;20049;-62
2022/11/29 05:21:55;;;;;;;28.88;15.82;;;7.80;99.90;;;;;;4864226;29;20129;-63
2022/11/29 05:24:22;;;;;;;28.80;16.73;;;7.90;99.90;;;;;;4864327;29;20058;-63
2022/11/29 05:26:49;;;;;;;29.55;16.98;;;7.90;99.90;;;;;;4864343;29;20163;-64
2022/11/29 05:29:15;;;;;;;26.15;15.65;;;7.80;99.90;;;;;;4864120;29;20061;-63
2022/11/29 05:31:42;;;;;;;22.75;15.43;;;7.80;99.90;;;;;;4864206;29;20074;-63
2022/11/29 05:34:09;;;;;;;27.98;17.17;;;7.70;99.90;;;;;;4864018;29;20056;-62
2022/11/29 05:36:37;;;;;;;28.27;16.73;;;7.70;99.90;;;;;;4864214;29;20042;-63
2022/11/29 05:39:03;;;;;;;32.30;17.98;;;7.70;99.90;;;;;;4863818;29;20082;-63
2022/11/29 05:41:30;;;;;;;29.17;16.90;;;7.60;99.90;;;;;;4863698;29;20050;-63
2022/11/29 05:43:57;;;;;;;30.65;17.55;;;7.60;99.90;;;;;;4863706;29;20045;-62
2022/11/29 05:46:23;;;;;;;30.95;16.98;;;7.60;99.90;;;;;;4863641;29;20429;-63
2022/11/29 05:48:50;;;;;;;27.70;16.63;;;7.60;99.90;;;;;;4863924;29;20482;-62
2022/11/29 05:51:17;;;;;;;28.50;16.40;;;7.60;99.90;;;;;;4862367;29;20111;-62
2022/11/29 05:53:44;;;;;;;27.92;18.13;;;7.60;99.90;;;;;;4863584;29;20093;-64
2022/11/29 05:56:10;;;;;;;33.33;17.88;;;7.60;99.90;;;;;;4863325;29;20504;-63
2022/11/29 05:58:37;;;;;;;28.48;18.83;;;7.50;99.90;;;;;;4863795;29;20129;-63
2022/11/29 06:01:04;;;;;;;30.08;18.10;;;7.50;99.90;;;;;;4863595;29;20060;-62
2022/11/29 06:03:31;;;;;;;32.70;18.20;;;7.50;99.90;;;;;;4863531;29;20056;-63
2022/11/29 06:05:59;;;;;;;27.67;16.08;;;7.60;99.90;;;;;;4863669;29;20475;-63
2022/11/29 06:08:28;;;;;;;24.48;15.80;;;7.60;99.90;;;;;;4861676;29;20480;-63
2022/11/29 06:10:55;;;;;;;20.02;14.65;;;7.60;99.90;;;;;;4863738;29;20049;-65
2022/11/29 06:13:22;;;;;;;23.92;15.40;;;7.60;99.90;;;;;;4863483;29;20042;-63
2022/11/29 06:15:48;;;;;;;21.67;14.82;;;7.60;99.90;;;;;;4863385;29;20482;-67
2022/11/29 06:18:15;;;;;;;23.58;15.57;;;7.60;99.90;;;;;;4863423;29;20052;-62
2022/11/29 06:20:42;;;;;;;23.38;15.68;;;7.60;99.90;;;;;;4863599;29;20382;-63
2022/11/29 06:23:09;;;;;;;20.48;13.95;;;7.60;99.90;;;;;;4863292;29;20539;-63
2022/11/29 06:25:37;;;;;;;19.55;13.73;;;7.60;99.90;;;;;;4863204;29;20053;-62
2022/11/29 06:28:04;;;;;;;16.63;11.02;;;7.60;99.90;;;;;;4863131;29;20088;-63
2022/11/29 06:30:32;;;;;;;15.07;11.13;;;7.60;99.90;;;;;;4863271;29;20050;-63
2022/11/29 06:33:00;;;;;;;14.43;10.50;;;7.60;99.90;;;;;;4862979;29;20045;-64
2022/11/29 06:35:26;;;;;;;15.73;11.00;;;7.60;99.90;;;;;;4863192;29;20366;-63
2022/11/29 06:37:53;;;;;;;20.48;13.20;;;7.60;99.90;;;;;;4863287;29;20045;-63
2022/11/29 06:40:20;;;;;;;17.48;12.60;;;7.60;99.90;;;;;;4862779;29;20056;-63
2022/11/29 06:42:47;;;;;;;18.27;12.77;;;7.50;99.90;;;;;;4862836;29;20053;-63
2022/11/29 06:45:14;;;;;;;17.20;11.70;;;7.50;99.90;;;;;;4863056;29;20080;-63
2022/11/29 06:47:41;;;;;;;17.40;12.82;;;7.50;99.90;;;;;;4863332;29;20052;-62
2022/11/29 06:50:07;;;;;;;17.75;12.57;;;7.50;99.90;;;;;;4862917;29;20076;-63
2022/11/29 06:52:34;;;;;;;20.00;13.93;;;7.50;99.90;;;;;;4862820;29;20034;-63
2022/11/29 06:55:01;;;;;;;19.05;13.68;;;7.50;99.90;;;;;;4862721;29;20478;-63
2022/11/29 06:57:28;;;;;;;19.52;12.60;;;7.50;99.90;;;;;;4862881;29;20070;-63
2022/11/29 06:59:55;;;;;;;16.45;11.75;;;7.50;99.90;;;;;;4863051;29;20105;-63
2022/11/29 07:02:22;;;;;;;13.20;9.30;;;7.50;99.90;;;;;;4862486;29;20157;-62
2022/11/29 07:04:48;;;;;;;14.25;9.93;;;7.40;99.90;;;;;;4862397;29;20568;-62
2022/11/29 07:07:15;;;;;;;13.40;8.85;;;7.50;99.90;;;;;;4861375;29;20081;-63
2022/11/29 07:09:42;;;;;;;11.60;8.13;;;7.40;99.90;;;;;;4862200;29;20080;-63
2022/11/29 07:12:09;;;;;;;12.65;9.32;;;7.40;99.90;;;;;;4862130;29;20049;-63
2022/11/29 07:14:36;;;;;;;17.23;11.60;;;7.40;99.90;;;;;;4849967;29;20117;-63
2022/11/29 07:17:02;;;;;;;18.13;11.52;;;7.40;99.90;;;;;;4843896;29;20070;-64
2022/11/29 07:19:29;;;;;;;21.02;12.35;;;7.40;99.90;;;;;;4844211;29;20535;-63
2022/11/29 07:21:56;;;;;;;17.77;12.60;;;7.40;99.90;;;;;;4850523;29;20077;-63
2022/11/29 07:24:22;;;;;;;14.68;12.05;;;7.40;99.90;;;;;;4848097;29;20037;-63
2022/11/29 07:26:49;;;;;;;14.70;12.23;;;7.40;99.90;;;;;;4859884;29;20049;-63
2022/11/29 07:29:23;;;;;;;16.50;12.90;;;7.40;99.90;;;;;;4856726;29;20144;-64
2022/11/29 07:31:50;;;;;;;17.85;12.35;;;7.40;99.90;;;;;;4859074;29;20033;-63
2022/11/29 07:34:17;;;;;;;18.05;11.95;;;7.40;99.90;;;;;;4862266;29;20086;-63
2022/11/29 07:36:43;;;;;;;17.15;11.63;;;7.40;99.90;;;;;;4862248;29;20045;-63
2022/11/29 07:39:10;;;;;;;14.32;10.90;;;7.30;99.90;;;;;;4854558;29;20042;-63
2022/11/29 07:41:37;;;;;;;18.10;12.43;;;7.30;99.90;;;;;;4847844;29;20080;-64
2022/11/29 07:44:03;;;;;;;15.00;11.48;;;7.30;99.90;;;;;;4860828;29;20045;-63
2022/11/29 07:46:30;;;;;;;17.63;12.43;;;7.30;99.90;;;;;;4859262;29;20098;-61
2022/11/29 07:48:57;;;;;;;15.13;12.07;;;7.30;99.90;;;;;;4859850;29;20069;-63
2022/11/29 07:51:24;;;;;;;15.70;10.98;;;7.30;99.90;;;;;;4861450;29;20050;-63
2022/11/29 07:53:50;;;;;;;16.58;11.63;;;7.30;99.90;;;;;;4852974;29;20073;-62
2022/11/29 07:56:17;;;;;;;13.80;10.50;;;7.30;99.90;;;;;;4857259;29;20069;-64
2022/11/29 07:58:44;;;;;;;19.15;10.70;;;7.30;99.90;;;;;;4840249;29;20449;-61
2022/11/29 08:01:11;;;;;;;18.48;11.85;;;7.30;99.90;;;;;;4846611;29;20049;-61
2022/11/29 08:03:38;;;;;;;17.38;11.93;;;7.30;99.90;;;;;;4846904;29;20041;-62
2022/11/29 08:06:05;;;;;;;17.10;12.10;;;7.30;99.90;;;;;;4856966;29;20060;-62
2022/11/29 08:08:31;;;;;;;19.33;12.15;;;7.30;99.90;;;;;;4852604;29;20045;-62
2022/11/29 08:10:58;;;;;;;16.23;11.50;;;7.30;99.90;;;;;;4860860;29;20045;-61
2022/11/29 08:13:25;;;;;;;15.45;11.45;;;7.40;99.90;;;;;;4850712;29;20442;-61
2022/11/29 08:15:52;;;;;;;14.48;11.52;;;7.30;99.90;;;;;;4851603;29;20078;-63
2022/11/29 08:18:18;;;;;;;17.95;12.30;;;7.30;99.90;;;;;;4859055;29;20049;-62
2022/11/29 08:20:45;;;;;;;16.77;12.80;;;7.30;99.90;;;;;;4847570;29;20483;-60
2022/11/29 08:23:12;;;;;;;13.00;9.65;;;7.30;99.90;;;;;;4845452;29;20048;-65
2022/11/29 08:25:38;;;;;;;14.50;11.30;;;7.30;99.90;;;;;;4859636;29;20157;-62
2022/11/29 08:28:05;;;;;;;15.35;11.38;;;7.30;99.90;;;;;;4848651;29;20154;-62
2022/11/29 08:30:32;;;;;;;19.23;11.52;;;7.30;99.90;;;;;;4849635;29;20057;-62
2022/11/29 08:32:59;;;;;;;17.35;13.05;;;7.30;99.90;;;;;;4853240;29;20049;-62
2022/11/29 08:35:25;;;;;;;17.30;13.60;;;7.30;99.90;;;;;;4848882;29;20125;-61
2022/11/29 08:37:52;;;;;;;16.35;12.90;;;7.40;99.90;;;;;;4842939;29;20098;-64
2022/11/29 08:40:19;;;;;;;17.00;13.25;;;7.40;99.90;;;;;;4847571;29;20075;-63
2022/11/29 08:42:46;;;;;;;24.17;14.93;;;7.40;99.90;;;;;;4851559;29;20050;-63
2022/11/29 08:45:12;;;;;;;17.02;12.73;;;7.40;99.90;;;;;;4846221;29;20437;-61
2022/11/29 08:47:41;;;;;;;22.92;13.57;;;7.40;99.90;;;;;;4842584;29;20054;-62
2022/11/29 08:50:08;;;;;;;16.65;13.13;;;7.40;99.90;;;;;;4857664;29;20057;-62
2022/11/29 08:55:21;;;;;;;19.50;13.73;;;7.50;99.90;;;;;;4843239;29;20050;-62
2022/11/29 08:57:55;;;;;;;19.17;13.50;;;7.50;99.90;;;;;;4847398;29;20058;-62
2022/11/29 09:00:21;;;;;;;15.95;13.43;;;7.50;99.90;;;;;;4843960;29;20050;-63
2022/11/29 09:02:48;;;;;;;18.48;13.40;;;7.50;99.90;;;;;;4846975;29;20083;-63
2022/11/29 09:05:15;;;;;;;18.55;13.32;;;7.50;99.90;;;;;;4850742;29;20046;-62
2022/11/29 09:07:42;;;;;;;17.80;12.65;;;7.50;99.90;;;;;;4843100;29;20386;-63
2022/11/29 09:10:09;;;;;;;13.20;9.88;;;7.60;99.90;;;;;;4842525;29;20200;-61
2022/11/29 09:12:35;;;;;;;14.85;11.43;;;7.50;99.90;;;;;;4851080;29;20092;-62
2022/11/29 09:15:03;;;;;;;15.30;10.23;;;7.50;99.90;;;;;;4849031;29;20046;-63
2022/11/29 09:17:29;;;;;;;11.05;8.20;;;7.50;99.90;;;;;;4853190;29;20196;-62
2022/11/29 09:19:56;;;;;;;13.30;8.88;;;7.50;99.90;;;;;;4854837;29;20120;-61
2022/11/29 09:22:23;;;;;;;10.40;7.70;;;7.50;99.90;;;;;;4847388;29;20053;-61
2022/11/29 09:24:50;;;;;;;8.68;7.45;;;7.50;99.90;;;;;;4848672;29;20386;-62
2022/11/29 09:27:16;;;;;;;8.98;7.43;;;7.50;99.90;;;;;;4844299;29;20425;-62
2022/11/29 09:29:43;;;;;;;9.00;8.00;;;7.50;99.90;;;;;;4849320;29;20060;-61
2022/11/29 09:32:10;;;;;;;16.35;8.88;;;7.50;99.90;;;;;;4842427;29;20098;-63
2022/11/29 09:34:36;;;;;;;12.13;8.52;;;7.60;99.90;;;;;;4845456;29;20105;-61
2022/11/29 09:37:03;;;;;;;11.10;8.30;;;7.60;99.90;;;;;;4854164;29;20072;-62
2022/11/29 09:39:30;;;;;;;13.50;8.82;;;7.60;99.90;;;;;;4850488;29;20057;-61
2022/11/29 09:41:57;;;;;;;12.02;8.95;;;7.60;99.90;;;;;;4849274;29;20078;-62
2022/11/29 09:44:24;;;;;;;12.98;9.25;;;7.70;99.90;;;;;;4848898;29;20045;-61
2022/11/29 09:46:51;;;;;;;11.88;9.07;;;7.60;99.90;;;;;;4849388;29;20073;-63
2022/11/29 09:49:24;;;;;;;15.85;10.25;;;7.60;99.90;;;;;;4857388;29;20051;-63
2022/11/29 09:51:50;;;;;;;13.15;9.30;;;7.60;99.90;;;;;;4850493;29;20038;-63
2022/11/29 09:54:17;;;;;;;13.18;9.38;;;7.70;99.90;;;;;;4848271;29;20110;-62
2022/11/29 09:56:44;;;;;;;16.23;10.60;;;7.70;99.90;;;;;;4856387;29;20044;-64
2022/11/29 09:59:11;;;;;;;14.15;10.13;;;7.70;99.90;;;;;;4854637;29;20056;-62
2022/11/29 10:01:38;;;;;;;13.43;10.45;;;7.80;99.90;;;;;;4852765;29;20144;-62
2022/11/29 10:04:04;;;;;;;15.88;11.63;;;7.80;99.90;;;;;;4855897;29;20048;-62
2022/11/29 10:06:33;;;;;;;15.80;11.63;;;7.80;99.90;;;;;;4857241;29;20054;-62
2022/11/29 10:09:00;;;;;;;13.32;10.70;;;7.80;99.90;;;;;;4863213;29;20080;-61
2022/11/29 10:11:27;;;;;;;15.57;10.57;;;7.80;99.90;;;;;;4844274;29;20105;-63
2022/11/29 10:13:54;;;;;;;12.75;10.43;;;7.80;99.90;;;;;;4844541;29;20046;-62
2022/11/29 10:16:21;;;;;;;13.68;10.50;;;7.80;99.90;;;;;;4856624;29;20041;-63
2022/11/29 10:18:47;;;;;;;15.32;10.27;;;7.80;99.90;;;;;;4862628;29;20489;-63
2022/11/29 10:21:14;;;;;;;12.90;11.00;;;7.90;99.90;;;;;;4862715;29;20125;-62
2022/11/29 10:23:41;;;;;;;13.75;11.10;;;7.80;99.90;;;;;;4862471;29;20049;-62
2022/11/29 10:26:08;;;;;;;14.82;10.50;;;7.80;99.90;;;;;;4862770;29;20132;-61
2022/11/29 10:28:35;;;;;;;15.10;10.75;;;7.80;99.90;;;;;;4862587;29;20053;-62
2022/11/29 10:31:01;;;;;;;14.18;11.90;;;7.80;99.90;;;;;;4862379;29;20048;-62
2022/11/29 10:33:28;;;;;;;15.00;11.23;;;7.80;99.90;;;;;;4862607;29;20718;-63
2022/11/29 10:35:55;;;;;;;12.50;9.93;;;7.70;99.90;;;;;;4862773;29;20052;-63
2022/11/29 10:38:23;;;;;;;12.30;10.73;;;7.70;99.90;;;;;;4862935;29;20041;-63
2022/11/29 10:40:57;;;;;;;13.52;10.50;;;7.70;99.90;;;;;;4859025;29;20470;-63
2022/11/29 10:43:24;;;;;;;16.40;9.88;;;7.80;99.90;;;;;;4861798;29;20127;-65
2022/11/29 10:45:54;;;;;;;15.25;10.75;;;7.90;99.90;;;;;;4852914;29;20038;-64
2022/11/29 10:48:21;;;;;;;14.90;11.95;;;7.80;99.90;;;;;;4847861;29;20533;-63
2022/11/29 10:50:48;;;;;;;14.98;10.68;;;7.80;99.90;;;;;;4844097;29;20409;-64
2022/11/29 10:53:15;;;;;;;14.02;11.07;;;7.80;99.90;;;;;;4849147;29;20069;-64
2022/11/29 10:55:42;;;;;;;13.43;10.30;;;7.90;99.90;;;;;;4861728;29;20102;-62
2022/11/29 10:58:08;;;;;;;12.23;9.05;;;7.80;99.90;;;;;;4850994;29;20052;-64
2022/11/29 11:00:35;;;;;;;11.50;8.82;;;7.80;99.90;;;;;;4847598;29;20128;-65
2022/11/29 11:03:02;;;;;;;11.60;9.85;;;7.90;99.90;;;;;;4859495;29;20455;-63
2022/11/29 11:05:29;;;;;;;12.95;9.95;;;7.90;99.90;;;;;;4844976;29;20064;-63
2022/11/29 11:07:56;;;;;;;14.85;10.40;;;7.90;99.90;;;;;;4854033;29;20081;-65
2022/11/29 11:10:25;;;;;;;12.07;10.15;;;7.90;99.90;;;;;;4849681;29;20058;-63
2022/11/29 11:12:51;;;;;;;14.68;9.40;;;8.00;99.90;;;;;;4857683;29;20422;-63
2022/11/29 11:15:18;;;;;;;12.43;8.70;;;8.00;99.90;;;;;;4847516;29;20054;-63
2022/11/29 11:17:45;;;;;;;12.50;8.75;;;8.00;99.90;;;;;;4852460;29;20030;-64
2022/11/29 11:20:12;;;;;;;12.15;8.75;;;7.90;99.90;;;;;;4855430;29;20446;-63
2022/11/29 11:22:39;;;;;;;13.15;8.93;;;7.80;99.90;;;;;;4851879;29;20457;-64
2022/11/29 11:25:06;;;;;;;11.38;9.05;;;7.80;99.90;;;;;;4852386;29;20056;-62
2022/11/29 11:27:32;;;;;;;13.20;9.20;;;7.90;99.90;;;;;;4851098;29;20049;-62
2022/11/29 11:29:59;;;;;;;13.10;10.05;;;7.90;99.90;;;;;;4860576;29;20447;-62
2022/11/29 11:32:26;;;;;;;13.88;10.65;;;8.00;99.90;;;;;;4849465;29;20049;-62
2022/11/29 11:34:53;;;;;;;14.45;10.60;;;8.00;99.90;;;;;;4861455;29;20116;-64
2022/11/29 11:37:20;;;;;;;13.85;11.65;;;7.90;99.90;;;;;;4861385;29;20076;-63
2022/11/29 11:39:47;;;;;;;14.60;12.02;;;7.90;99.90;;;;;;4855096;29;20037;-62
2022/11/29 11:44:59;;;;;;;14.93;12.40;;;7.80;99.90;;;;;;4853925;29;20554;-63
2022/11/29 11:47:26;;;;;;;16.80;13.43;;;7.80;99.90;;;;;;4855788;29;20053;-63
2022/11/29 11:49:53;;;;;;;15.73;12.75;;;7.80;99.90;;;;;;4859527;29;20455;-63
2022/11/29 11:52:20;;;;;;;21.92;16.02;;;7.90;99.90;;;;;;4857105;29;20470;-62
2022/11/29 11:54:46;;;;;;;23.92;16.08;;;7.90;99.90;;;;;;4843830;29;20041;-63
2022/11/29 11:57:13;;;;;;;19.80;14.73;;;7.80;99.90;;;;;;4843082;29;20128;-62
2022/11/29 11:59:40;;;;;;;16.80;13.18;;;7.90;99.90;;;;;;4842461;29;20057;-64
2022/11/29 12:02:06;;;;;;;15.93;12.43;;;7.90;99.90;;;;;;4849033;29;20045;-63
2022/11/29 12:04:33;;;;;;;16.55;13.25;;;7.90;99.90;;;;;;4847654;29;20084;-63
2022/11/29 12:07:00;;;;;;;17.02;12.82;;;8.00;99.90;;;;;;4841445;29;20049;-61
2022/11/29 12:09:27;;;;;;;18.20;12.13;;;8.00;99.90;;;;;;4842663;29;20046;-62
2022/11/29 12:11:54;;;;;;;17.20;12.60;;;7.90;99.90;;;;;;4850618;29;20046;-63
2022/11/29 12:14:20;;;;;;;18.55;12.50;;;7.90;99.90;;;;;;4861098;29;20481;-63
2022/11/29 12:16:47;;;;;;;17.88;13.40;;;7.90;99.90;;;;;;4848680;29;20056;-63
2022/11/29 12:19:14;;;;;;;18.95;13.85;;;7.90;99.90;;;;;;4854326;29;20051;-62
2022/11/29 12:21:41;;;;;;;16.92;14.23;;;7.90;99.90;;;;;;4843412;29;20050;-63
2022/11/29 12:24:07;;;;;;;19.45;13.57;;;8.00;99.90;;;;;;4859389;29;20112;-62
2022/11/29 12:26:34;;;;;;;18.08;14.68;;;7.90;99.90;;;;;;4856296;29;20042;-62
2022/11/29 12:29:21;;;;;;;22.38;15.23;;;8.00;99.90;;;;;;4843101;29;20057;-63
2022/11/29 12:31:48;;;;;;;21.30;15.18;;;8.00;99.90;;;;;;4860769;29;20065;-63
2022/11/29 12:34:15;;;;;;;20.25;14.93;;;8.00;99.90;;;;;;4843969;29;20125;-62
2022/11/29 12:36:47;;;;;;;21.75;14.23;;;8.00;99.90;;;;;;4843530;29;20455;-62
2022/11/29 12:39:14;;;;;;;19.23;14.07;;;8.00;99.90;;;;;;4845776;29;20117;-63
2022/11/29 12:41:41;;;;;;;17.63;13.52;;;7.90;99.90;;;;;;4849384;29;20105;-63